Weather History for KHJH - March, 2013

Change the Weather History Date:

Tuesday, March 5, 2013

  Actual Average Record
Temperature  
Mean Temperature 30 °F -  
Max Temperature 37 °F 43 °F 78 °F (2009)
Min Temperature 24 °F 23 °F -10 °F (1978)
Degree Days  
Heating Degree Days 34    
Moisture  
Dew Point 17 °F    
Average Humidity 56    
Maximum Humidity 77    
Minimum Humidity 40    
Precipitation  
Precipitation 0.02 in - - ()
Sea Level Pressure  
Sea Level Pressure 30.26 in    
Wind  
Wind Speed 16 mph (NNW)    
Max Wind Speed 25 mph    
Max Gust Speed 34 mph    
Visibility 10 miles    
Events      
Averages and records for this station are not official NWS values.
T = Trace of Precipitation, MM = Missing Value Source: NWS Daily Summary

Daily Weather History Graph

Daily Weather History Graph

Search for Another Location

Airport or City:

Trip Planner

Search our weather history database for the weather conditions in past years. The results will help you decide how hot, cold, wet, or windy it might be!

Date:

Astronomy

Mar. 05, 2013 Rise Set
Actual Time 6:57 AM CST 6:26 PM CST
Civil Twilight 6:30 AM CST 6:53 PM CST
Nautical Twilight 5:58 AM CST 7:25 PM CST
Astronomical Twilight 5:27 AM CST 7:56 PM CST
Moon 2:10 AM CST (3/5) 12:07 PM CST (3/5)
Length of Visible Light 12h 23m
Length of Day
11h 29m
Last Quarter, 40% of the Moon is Illuminated
Mar 5
Last Quarter
Mar 11
New
Mar 19
First Quarter
Mar 27
Full
Apr 2
Last Quarter

Hourly Weather History & Observations

Time (CST) Temp. Windchill Dew Point Humidity Pressure Visibility Wind Dir Wind Speed Gust Speed Precip Events Conditions
12:15 AM 33.1 °F 21.5 °F 15.3 °F 48% 30.10 in 10.0 mi NNW 19.6 mph 34.5 mph N/A   Overcast
12:35 AM 32.4 °F 21.3 °F 16.2 °F 51% 30.11 in 10.0 mi NW 17.3 mph 24.2 mph N/A   Overcast
12:55 AM 31.6 °F 20.7 °F 16.5 °F 54% 30.11 in 10.0 mi NNW 16.1 mph 25.3 mph N/A   Scattered Clouds
1:15 AM 30.7 °F 18.8 °F 16.7 °F 56% 30.11 in 10.0 mi NW 18.4 mph 28.8 mph N/A   Clear
1:55 AM 29.5 °F 17.2 °F 15.3 °F 55% 30.12 in 10.0 mi NW 18.4 mph 29.9 mph N/A   Clear
2:15 AM 29.3 °F 17.3 °F 13.6 °F 52% 30.13 in 10.0 mi NW 17.3 mph 34.5 mph N/A   Clear
2:35 AM 28.8 °F 18.4 °F 15.4 °F 58% 30.14 in 10.0 mi NW 12.7 mph 20.7 mph N/A   Clear
2:55 AM 28.4 °F 17.5 °F 16.0 °F 60% 30.14 in 10.0 mi NW 13.8 mph 25.3 mph N/A   Clear
3:15 AM 28.4 °F 16.2 °F 15.4 °F 58% 30.13 in 10.0 mi WNW 17.3 mph 23.0 mph N/A   Clear
3:35 AM 28.4 °F 15.1 °F 12.9 °F 52% 30.13 in 10.0 mi NW 20.7 mph 31.1 mph N/A   Clear
3:55 AM 27.7 °F 17.1 °F 14.0 °F 57% 30.14 in 10.0 mi NW 12.7 mph 25.3 mph N/A   Clear
4:15 AM 27.5 °F 16.3 °F 14.0 °F 57% 30.14 in 10.0 mi NW 13.8 mph 24.2 mph N/A   Clear
4:35 AM 27.5 °F 15.0 °F 15.1 °F 60% 30.14 in 10.0 mi NW 17.3 mph 24.2 mph N/A   Clear
4:55 AM 27.5 °F 15.4 °F 16.2 °F 62% 30.15 in 10.0 mi NW 16.1 mph 25.3 mph N/A   Clear
5:15 AM 27.5 °F 15.4 °F 16.5 °F 63% 30.16 in 10.0 mi NW 16.1 mph 24.2 mph N/A   Clear
5:35 AM 27.1 °F 14.9 °F 16.2 °F 63% 30.16 in 10.0 mi NW 16.1 mph 23.0 mph N/A   Clear
5:55 AM 27.0 °F 16.1 °F 15.8 °F 63% 30.17 in 10.0 mi NW 12.7 mph 19.6 mph N/A   Clear
6:15 AM 27.1 °F 15.4 °F 15.3 °F 61% 30.17 in 10.0 mi NW 15.0 mph 26.5 mph N/A   Clear
7:15 AM 26.6 °F 13.8 °F 15.3 °F 62% 30.19 in 10.0 mi NW 17.3 mph 23.0 mph N/A   Clear
7:35 AM 27.0 °F 14.3 °F 15.4 °F 62% 30.20 in 10.0 mi NW 17.3 mph 24.2 mph N/A   Clear
7:55 AM 27.5 °F 15.0 °F 15.6 °F 61% 30.21 in 10.0 mi NW 17.3 mph 24.2 mph N/A   Clear
8:15 AM 28.2 °F 14.8 °F 15.4 °F 59% 30.21 in 10.0 mi NNW 20.7 mph 27.6 mph N/A   Clear
8:35 AM 28.8 °F 16.2 °F 15.8 °F 58% 30.22 in 10.0 mi NW 18.4 mph 31.1 mph N/A   Clear
8:55 AM 29.1 °F 14.8 °F 15.8 °F 58% 30.22 in 10.0 mi NNW 25.3 mph 32.2 mph N/A   Clear
9:15 AM 29.3 °F 15.9 °F 15.8 °F 57% 30.23 in 10.0 mi NNW 21.9 mph 33.4 mph N/A   Clear
9:35 AM 30.0 °F 17.5 °F 16.5 °F 57% 30.24 in 10.0 mi NNW 19.6 mph 31.1 mph N/A   Clear
9:55 AM 30.2 °F 16.8 °F 16.0 °F 56% 30.25 in 10.0 mi NNW 23.0 mph 34.5 mph N/A   Clear
10:15 AM 30.4 °F 17.7 °F 16.7 °F 57% 30.26 in 10.0 mi NNW 20.7 mph 29.9 mph N/A   Scattered Clouds
10:35 AM 32.0 °F 19.8 °F 17.2 °F 55% 30.26 in 10.0 mi NNW 20.7 mph 32.2 mph N/A   Scattered Clouds
10:55 AM 32.0 °F 20.5 °F 18.0 °F 56% 30.27 in 10.0 mi NW 18.4 mph 27.6 mph N/A   Mostly Cloudy
11:15 AM 31.8 °F 19.0 °F 16.9 °F 54% 30.28 in 10.0 mi NNW 23.0 mph 29.9 mph N/A   Mostly Cloudy
11:35 AM 32.0 °F 19.2 °F 17.2 °F 55% 30.29 in 10.0 mi NNW 23.0 mph 29.9 mph N/A   Mostly Cloudy
11:55 AM 32.0 °F 18.6 °F 16.5 °F 53% 30.29 in 10.0 mi NNW 25.3 mph 29.9 mph N/A   Scattered Clouds
12:15 PM 33.1 °F 21.2 °F 17.6 °F 53% 30.29 in 10.0 mi NNW 20.7 mph 28.8 mph N/A   Mostly Cloudy
12:35 PM 32.9 °F 22.0 °F 17.6 °F 53% 30.30 in 10.0 mi NW 17.3 mph 27.6 mph N/A   Mostly Cloudy
12:55 PM 33.8 °F 21.0 °F 17.8 °F 52% 30.29 in 10.0 mi NNW 25.3 mph 28.8 mph N/A   Mostly Cloudy
1:15 PM 34.7 °F 22.2 °F 16.9 °F 48% 30.29 in 10.0 mi NNW 25.3 mph 32.2 mph N/A   Scattered Clouds
1:35 PM 34.9 °F 23.0 °F 17.1 °F 48% 30.29 in 10.0 mi NNW 23.0 mph 28.8 mph N/A   Scattered Clouds
1:55 PM 35.6 °F 23.4 °F 17.2 °F 47% 30.29 in 10.0 mi NW 25.3 mph 29.9 mph N/A   Mostly Cloudy
2:15 PM 36.3 °F 26.1 °F 17.8 °F 47% 30.28 in 10.0 mi NNW 18.4 mph 27.6 mph N/A   Mostly Cloudy
2:35 PM 37.2 °F 27.6 °F 17.6 °F 45% 30.29 in 10.0 mi NW 17.3 mph 32.2 mph N/A   Scattered Clouds
2:55 PM 37.0 °F 26.2 °F 16.7 °F 44% 30.29 in 10.0 mi NNW 21.9 mph 28.8 mph N/A   Scattered Clouds
3:15 PM 37.6 °F 27.1 °F 16.5 °F 42% 30.29 in 10.0 mi NW 20.7 mph 27.6 mph N/A   Scattered Clouds
3:35 PM 37.6 °F 27.4 °F 16.0 °F 41% 30.29 in 10.0 mi NNW 19.6 mph 28.8 mph N/A   Scattered Clouds
3:55 PM 37.9 °F 27.1 °F 16.0 °F 41% 30.29 in 10.0 mi NNW 23.0 mph 26.5 mph N/A   Scattered Clouds
4:15 PM 37.6 °F 27.1 °F 15.8 °F 41% 30.29 in 10.0 mi NW 20.7 mph 26.5 mph N/A   Clear
4:35 PM 37.8 °F 28.6 °F 16.3 °F 42% 30.28 in 10.0 mi NNW 16.1 mph 26.5 mph N/A   Clear
4:55 PM 37.9 °F 29.2 °F 15.8 °F 41% 30.29 in 10.0 mi NW 15.0 mph 21.9 mph N/A   Clear
5:15 PM 37.4 °F 27.8 °F 15.1 °F 40% 30.30 in 10.0 mi NNW 17.3 mph 21.9 mph N/A   Clear
5:35 PM 36.9 °F 28.2 °F 15.8 °F 42% 30.31 in 10.0 mi NNW 13.8 mph 21.9 mph N/A   Clear
5:55 PM 36.1 °F 28.7 °F 16.0 °F 44% 30.31 in 10.0 mi North 10.4 mph 16.1 mph N/A   Clear
6:15 PM 35.2 °F 27.1 °F 16.7 °F 47% 30.32 in 10.0 mi North 11.5 mph 18.4 mph N/A   Clear
6:35 PM 34.2 °F 26.8 °F 16.9 °F 49% 30.32 in 10.0 mi North 9.2 mph - N/A   Clear
6:55 PM 33.1 °F 26.1 °F 17.8 °F 53% 30.33 in 10.0 mi North 8.1 mph - N/A   Clear
7:15 PM 32.4 °F 26.0 °F 18.5 °F 57% 30.33 in 10.0 mi North 6.9 mph - N/A   Clear
7:35 PM 32.0 °F 27.5 °F 18.1 °F 57% 30.34 in 10.0 mi North 4.6 mph - N/A   Clear
7:55 PM 31.6 °F 25.1 °F 18.3 °F 58% 30.34 in 10.0 mi North 6.9 mph - N/A   Clear
8:15 PM 30.9 °F 25.2 °F 18.5 °F 60% 30.35 in 10.0 mi North 5.8 mph - N/A   Clear
8:35 PM 30.0 °F 24.1 °F 18.9 °F 63% 30.35 in 10.0 mi North 5.8 mph - N/A   Clear
8:55 PM 29.3 °F 25.6 °F 19.4 °F 67% 30.35 in 10.0 mi NNW 3.5 mph - N/A   Clear
9:15 PM 28.4 °F 24.6 °F 19.4 °F 69% 30.36 in 10.0 mi NW 3.5 mph - N/A   Clear
9:35 PM 27.5 °F 23.6 °F 19.8 °F 73% 30.37 in 10.0 mi NW 3.5 mph - N/A   Clear
9:55 PM 27.0 °F - 19.2 °F 73% 30.37 in 10.0 mi Calm Calm - N/A   Clear
10:15 PM 26.6 °F 22.6 °F 19.6 °F 75% 30.38 in 10.0 mi West 3.5 mph - N/A   Clear
10:35 PM 26.2 °F 20.7 °F 19.2 °F 75% 30.39 in 10.0 mi NW 4.6 mph - N/A   Clear
10:55 PM 26.1 °F 20.5 °F 18.9 °F 74% 30.39 in 10.0 mi NNW 4.6 mph - N/A   Clear
11:15 PM 24.8 °F 17.9 °F 18.5 °F 77% 30.39 in 10.0 mi NNW 5.8 mph - N/A   Clear
11:35 PM 25.5 °F 19.9 °F 18.5 °F 75% 30.39 in 10.0 mi North 4.6 mph - N/A   Clear
11:55 PM 26.2 °F 22.1 °F 18.3 °F 72% 30.38 in 10.0 mi North 3.5 mph - N/A   Clear